sensor_id;sensor_type;location;lat;lon;timestamp;pressure;altitude;pressure_sealevel;temperature;humidity
8697;BME280;4385;48.848;8.924;2022-11-06T00:01:22;97768.09;;;17.90;100.00
8697;BME280;4385;48.848;8.924;2022-11-06T00:03:50;97763.94;;;17.82;100.00
8697;BME280;4385;48.848;8.924;2022-11-06T00:06:16;97753.91;;;17.73;100.00
8697;BME280;4385;48.848;8.924;2022-11-06T00:09:04;97748.81;;;17.73;100.00
8697;BME280;4385;48.848;8.924;2022-11-06T00:11:29;97751.31;;;17.75;100.00
8697;BME280;4385;48.848;8.924;2022-11-06T00:13:55;97752.19;;;17.74;100.00
8697;BME280;4385;48.848;8.924;2022-11-06T00:16:21;97756.47;;;17.72;100.00
8697;BME280;4385;48.848;8.924;2022-11-06T00:18:47;97761.63;;;17.68;100.00
8697;BME280;4385;48.848;8.924;2022-11-06T00:21:17;97766.75;;;17.65;100.00
8697;BME280;4385;48.848;8.924;2022-11-06T00:23:44;97775.28;;;17.64;100.00
8697;BME280;4385;48.848;8.924;2022-11-06T00:26:11;97767.66;;;17.63;100.00
8697;BME280;4385;48.848;8.924;2022-11-06T00:28:37;97767.66;;;17.63;100.00
8697;BME280;4385;48.848;8.924;2022-11-06T00:31:11;97773.63;;;17.58;100.00
8697;BME280;4385;48.848;8.924;2022-11-06T00:33:37;97767.69;;;17.61;100.00
8697;BME280;4385;48.848;8.924;2022-11-06T00:36:09;97771.00;;;17.65;100.00
8697;BME280;4385;48.848;8.924;2022-11-06T00:38:35;97778.75;;;17.57;100.00
8697;BME280;4385;48.848;8.924;2022-11-06T00:41:02;97776.22;;;17.55;100.00
8697;BME280;4385;48.848;8.924;2022-11-06T00:43:28;97777.97;;;17.53;100.00
8697;BME280;4385;48.848;8.924;2022-11-06T00:45:59;97772.38;;;17.89;100.00
8697;BME280;4385;48.848;8.924;2022-11-06T00:48:26;97777.19;;;18.06;100.00
8697;BME280;4385;48.848;8.924;2022-11-06T00:50:51;97781.88;;;17.76;100.00
8697;BME280;4385;48.848;8.924;2022-11-06T00:53:16;97781.19;;;17.65;100.00
8697;BME280;4385;48.848;8.924;2022-11-06T00:55:41;97780.41;;;17.63;100.00
8697;BME280;4385;48.848;8.924;2022-11-06T00:58:07;97777.88;;;17.61;100.00
8697;BME280;4385;48.848;8.924;2022-11-06T01:00:32;97769.47;;;17.54;100.00
8697;BME280;4385;48.848;8.924;2022-11-06T01:02:57;97772.03;;;17.51;100.00
8697;BME280;4385;48.848;8.924;2022-11-06T01:05:23;97771.97;;;17.56;100.00
8697;BME280;4385;48.848;8.924;2022-11-06T01:07:48;97777.19;;;17.48;100.00
8697;BME280;4385;48.848;8.924;2022-11-06T01:10:13;97774.66;;;17.47;100.00
8697;BME280;4385;48.848;8.924;2022-11-06T01:12:39;97775.53;;;17.45;100.00
8697;BME280;4385;48.848;8.924;2022-11-06T01:15:04;97768.75;;;17.43;100.00
8697;BME280;4385;48.848;8.924;2022-11-06T01:17:30;97762.81;;;17.44;100.00
8697;BME280;4385;48.848;8.924;2022-11-06T01:19:55;97766.19;;;17.44;100.00
8697;BME280;4385;48.848;8.924;2022-11-06T01:22:20;97764.53;;;17.42;100.00
8697;BME280;4385;48.848;8.924;2022-11-06T01:24:46;97766.19;;;17.43;100.00
8697;BME280;4385;48.848;8.924;2022-11-06T01:27:11;97769.63;;;17.42;100.00
8697;BME280;4385;48.848;8.924;2022-11-06T01:29:36;97766.28;;;17.37;100.00
8697;BME280;4385;48.848;8.924;2022-11-06T01:32:02;97762.84;;;17.41;100.00
8697;BME280;4385;48.848;8.924;2022-11-06T01:34:27;97765.34;;;17.45;100.00
8697;BME280;4385;48.848;8.924;2022-11-06T01:36:52;97768.69;;;17.48;100.00
8697;BME280;4385;48.848;8.924;2022-11-06T01:39:18;97752.56;;;17.49;100.00
8697;BME280;4385;48.848;8.924;2022-11-06T01:41:46;97756.13;;;17.33;100.00
8697;BME280;4385;48.848;8.924;2022-11-06T01:46:56;97745.19;;;17.28;100.00
8697;BME280;4385;48.848;8.924;2022-11-06T01:49:21;97751.13;;;17.27;100.00
8697;BME280;4385;48.848;8.924;2022-11-06T01:51:53;97746.91;;;17.26;100.00
8697;BME280;4385;48.848;8.924;2022-11-06T01:54:20;97757.97;;;17.24;100.00
8697;BME280;4385;48.848;8.924;2022-11-06T01:56:48;97758.81;;;17.23;100.00
8697;BME280;4385;48.848;8.924;2022-11-06T01:59:17;97752.88;;;17.25;100.00
8697;BME280;4385;48.848;8.924;2022-11-06T02:01:44;97753.72;;;17.23;100.00
8697;BME280;4385;48.848;8.924;2022-11-06T02:04:23;97751.19;;;17.21;100.00
8697;BME280;4385;48.848;8.924;2022-11-06T02:06:49;97746.16;;;17.18;100.00
8697;BME280;4385;48.848;8.924;2022-11-06T02:09:15;97752.09;;;17.18;100.00
8697;BME280;4385;48.848;8.924;2022-11-06T02:11:42;97757.16;;;17.20;100.00
8697;BME280;4385;48.848;8.924;2022-11-06T02:16:53;97745.38;;;17.14;100.00
8697;BME280;4385;48.848;8.924;2022-11-06T02:19:32;97746.22;;;17.12;100.00
8697;BME280;4385;48.848;8.924;2022-11-06T02:27:30;97728.44;;;17.07;100.00
8697;BME280;4385;48.848;8.924;2022-11-06T02:30:11;97717.44;;;17.06;100.00
8697;BME280;4385;48.848;8.924;2022-11-06T02:32:56;97709.81;;;17.05;100.00
8697;BME280;4385;48.848;8.924;2022-11-06T02:35:35;97707.22;;;17.10;100.00
8697;BME280;4385;48.848;8.924;2022-11-06T02:38:24;97698.78;;;17.04;100.00
8697;BME280;4385;48.848;8.924;2022-11-06T02:40:53;97692.00;;;17.03;100.00
8697;BME280;4385;48.848;8.924;2022-11-06T02:43:23;97691.13;;;17.04;100.00
8697;BME280;4385;48.848;8.924;2022-11-06T02:46:13;97682.66;;;17.02;100.00
8697;BME280;4385;48.848;8.924;2022-11-06T02:48:44;97668.25;;;17.01;100.00
8697;BME280;4385;48.848;8.924;2022-11-06T02:51:14;97669.94;;;17.02;100.00
8697;BME280;4385;48.848;8.924;2022-11-06T02:53:41;97667.41;;;17.01;100.00
8697;BME280;4385;48.848;8.924;2022-11-06T02:56:15;97669.97;;;16.99;100.00
8697;BME280;4385;48.848;8.924;2022-11-06T02:58:48;97662.34;;;16.98;100.00
8697;BME280;4385;48.848;8.924;2022-11-06T03:01:28;97668.31;;;16.98;100.00
8697;BME280;4385;48.848;8.924;2022-11-06T03:04:00;97660.69;;;16.95;100.00
8697;BME280;4385;48.848;8.924;2022-11-06T03:06:32;97655.56;;;17.00;100.00
8697;BME280;4385;48.848;8.924;2022-11-06T03:09:09;97659.78;;;16.99;100.00
8697;BME280;4385;48.848;8.924;2022-11-06T03:11:37;97651.28;;;17.02;100.00
8697;BME280;4385;48.848;8.924;2022-11-06T03:14:11;97652.97;;;17.01;100.00
8697;BME280;4385;48.848;8.924;2022-11-06T03:16:51;97660.69;;;16.95;100.00
8697;BME280;4385;48.848;8.924;2022-11-06T03:19:29;97661.63;;;16.91;100.00
8697;BME280;4385;48.848;8.924;2022-11-06T03:27:41;97655.72;;;16.86;100.00
8697;BME280;4385;48.848;8.924;2022-11-06T03:30:12;97648.09;;;16.86;100.00
8697;BME280;4385;48.848;8.924;2022-11-06T03:32:52;97653.19;;;16.86;100.00
8697;BME280;4385;48.848;8.924;2022-11-06T03:35:28;97641.34;;;16.85;100.00
8697;BME280;4385;48.848;8.924;2022-11-06T03:38:04;97629.41;;;16.87;100.00
8697;BME280;4385;48.848;8.924;2022-11-06T03:40:34;97624.31;;;16.87;100.00
8697;BME280;4385;48.848;8.924;2022-11-06T03:43:04;97628.59;;;16.86;100.00
8697;BME280;4385;48.848;8.924;2022-11-06T03:45:32;97626.03;;;16.88;100.00
8697;BME280;4385;48.848;8.924;2022-11-06T03:48:08;97637.91;;;16.86;100.00
8697;BME280;4385;48.848;8.924;2022-11-06T03:50:53;97626.06;;;16.85;100.00
8697;BME280;4385;48.848;8.924;2022-11-06T03:53:29;97632.00;;;16.83;100.00
8697;BME280;4385;48.848;8.924;2022-11-06T03:56:04;97618.44;;;16.85;100.00
8697;BME280;4385;48.848;8.924;2022-11-06T03:58:36;97620.13;;;16.82;100.00
8697;BME280;4385;48.848;8.924;2022-11-06T04:01:04;97621.00;;;16.81;100.00
8697;BME280;4385;48.848;8.924;2022-11-06T04:03:34;97619.31;;;16.80;100.00
8697;BME280;4385;48.848;8.924;2022-11-06T04:08:35;97616.75;;;16.80;100.00
8697;BME280;4385;48.848;8.924;2022-11-06T04:11:23;97604.91;;;16.81;100.00
8697;BME280;4385;48.848;8.924;2022-11-06T04:14:10;97606.63;;;16.77;100.00
8697;BME280;4385;48.848;8.924;2022-11-06T04:16:42;97604.09;;;16.77;100.00
8697;BME280;4385;48.848;8.924;2022-11-06T04:19:18;97615.97;;;16.78;100.00
8697;BME280;4385;48.848;8.924;2022-11-06T04:28:11;97610.97;;;16.72;100.00
8697;BME280;4385;48.848;8.924;2022-11-06T04:31:00;97604.16;;;16.71;100.00
8697;BME280;4385;48.848;8.924;2022-11-06T04:33:49;97592.31;;;16.70;100.00
8697;BME280;4385;48.848;8.924;2022-11-06T04:36:34;97595.72;;;16.69;100.00
8697;BME280;4385;48.848;8.924;2022-11-06T04:43:10;97593.97;;;16.71;100.00
8697;BME280;4385;48.848;8.924;2022-11-06T04:45:12;97577.91;;;16.70;100.00
8697;BME280;4385;48.848;8.924;2022-11-06T04:47:38;97574.47;;;16.72;100.00
8697;BME280;4385;48.848;8.924;2022-11-06T04:50:05;97569.38;;;16.72;100.00
8697;BME280;4385;48.848;8.924;2022-11-06T04:52:32;97570.25;;;16.70;100.00
8697;BME280;4385;48.848;8.924;2022-11-06T04:54:58;97578.75;;;16.69;100.00
8697;BME280;4385;48.848;8.924;2022-11-06T04:57:24;97583.84;;;16.68;100.00
8697;BME280;4385;48.848;8.924;2022-11-06T04:59:50;97588.94;;;16.68;100.00
8697;BME280;4385;48.848;8.924;2022-11-06T05:02:15;97595.75;;;16.67;100.00
8697;BME280;4385;48.848;8.924;2022-11-06T05:04:41;97591.53;;;16.65;100.00
8697;BME280;4385;48.848;8.924;2022-11-06T05:07:08;97595.78;;;16.66;100.00
8697;BME280;4385;48.848;8.924;2022-11-06T05:09:33;97601.69;;;16.65;100.00
8697;BME280;4385;48.848;8.924;2022-11-06T05:11:58;97589.00;;;16.62;100.00
8697;BME280;4385;48.848;8.924;2022-11-06T05:14:23;97583.94;;;16.62;100.00
8697;BME280;4385;48.848;8.924;2022-11-06T05:16:49;97594.09;;;16.63;100.00
8697;BME280;4385;48.848;8.924;2022-11-06T05:19:14;97590.72;;;16.63;100.00
8697;BME280;4385;48.848;8.924;2022-11-06T05:21:39;97599.19;;;16.62;100.00
8697;BME280;4385;48.848;8.924;2022-11-06T05:24:23;97610.22;;;16.62;100.00
8697;BME280;4385;48.848;8.924;2022-11-06T05:26:48;97612.75;;;16.64;100.00
8697;BME280;4385;48.848;8.924;2022-11-06T05:29:14;97605.97;;;16.63;100.00
8697;BME280;4385;48.848;8.924;2022-11-06T05:31:39;97596.66;;;16.60;100.00
8697;BME280;4385;48.848;8.924;2022-11-06T05:34:04;97594.16;;;16.58;100.00
8697;BME280;4385;48.848;8.924;2022-11-06T05:36:30;97587.41;;;16.56;100.00
8697;BME280;4385;48.848;8.924;2022-11-06T05:38:55;97584.00;;;16.55;100.00
8697;BME280;4385;48.848;8.924;2022-11-06T05:41:20;97574.66;;;16.57;100.00
8697;BME280;4385;48.848;8.924;2022-11-06T05:43:45;97567.03;;;16.57;100.00
8697;BME280;4385;48.848;8.924;2022-11-06T05:46:11;97573.81;;;16.57;100.00
8697;BME280;4385;48.848;8.924;2022-11-06T05:48:36;97594.22;;;16.54;100.00
8697;BME280;4385;48.848;8.924;2022-11-06T05:51:03;97606.09;;;16.53;100.00
8697;BME280;4385;48.848;8.924;2022-11-06T05:53:31;97603.56;;;16.52;100.00
8697;BME280;4385;48.848;8.924;2022-11-06T05:55:57;97604.41;;;16.52;100.00
8697;BME280;4385;48.848;8.924;2022-11-06T05:58:22;97602.72;;;16.51;100.00
8697;BME280;4385;48.848;8.924;2022-11-06T06:00:47;97599.34;;;16.49;100.00
8697;BME280;4385;48.848;8.924;2022-11-06T06:03:13;97602.75;;;16.50;100.00
8697;BME280;4385;48.848;8.924;2022-11-06T06:05:38;97606.19;;;16.47;100.00
8697;BME280;4385;48.848;8.924;2022-11-06T06:08:04;97607.84;;;16.48;100.00
8697;BME280;4385;48.848;8.924;2022-11-06T06:10:29;97607.84;;;16.48;100.00
8697;BME280;4385;48.848;8.924;2022-11-06T06:12:54;97603.59;;;16.50;100.00
8697;BME280;4385;48.848;8.924;2022-11-06T06:15:20;97590.06;;;16.47;100.00
8697;BME280;4385;48.848;8.924;2022-11-06T06:17:45;97590.06;;;16.47;100.00
8697;BME280;4385;48.848;8.924;2022-11-06T06:20:11;97580.75;;;16.47;100.00
8697;BME280;4385;48.848;8.924;2022-11-06T06:22:36;97579.06;;;16.43;100.00
8697;BME280;4385;48.848;8.924;2022-11-06T06:25:02;97569.75;;;16.43;100.00
8697;BME280;4385;48.848;8.924;2022-11-06T06:27:27;97568.91;;;16.43;100.00
8697;BME280;4385;48.848;8.924;2022-11-06T06:29:53;97562.13;;;16.43;100.00
8697;BME280;4385;48.848;8.924;2022-11-06T06:32:18;97557.88;;;16.44;100.00
8697;BME280;4385;48.848;8.924;2022-11-06T06:34:44;97567.16;;;16.48;100.00
8697;BME280;4385;48.848;8.924;2022-11-06T06:37:09;97570.53;;;16.50;100.00
8697;BME280;4385;48.848;8.924;2022-11-06T06:39:34;97564.56;;;16.51;100.00
8697;BME280;4385;48.848;8.924;2022-11-06T06:41:59;97553.47;;;16.55;100.00
8697;BME280;4385;48.848;8.924;2022-11-06T06:44:25;97550.88;;;16.60;100.00
8697;BME280;4385;48.848;8.924;2022-11-06T06:46:50;97548.28;;;16.65;100.00
8697;BME280;4385;48.848;8.924;2022-11-06T06:49:15;97553.22;;;16.74;100.00
8697;BME280;4385;48.848;8.924;2022-11-06T06:51:41;97554.88;;;16.80;100.00
8697;BME280;4385;48.848;8.924;2022-11-06T06:54:06;97549.72;;;16.85;100.00
8697;BME280;4385;48.848;8.924;2022-11-06T06:56:31;97550.47;;;16.90;100.00
8697;BME280;4385;48.848;8.924;2022-11-06T06:58:57;97542.72;;;16.98;100.00
8697;BME280;4385;48.848;8.924;2022-11-06T07:01:22;97529.06;;;17.03;100.00
8697;BME280;4385;48.848;8.924;2022-11-06T07:03:47;97525.59;;;17.11;100.00
8697;BME280;4385;48.848;8.924;2022-11-06T07:06:13;97521.22;;;17.19;100.00
8697;BME280;4385;48.848;8.924;2022-11-06T07:08:38;97519.41;;;17.24;100.00
8697;BME280;4385;48.848;8.924;2022-11-06T07:11:06;97522.72;;;17.29;100.00
8697;BME280;4385;48.848;8.924;2022-11-06T07:13:32;97512.41;;;17.37;100.00
8697;BME280;4385;48.848;8.924;2022-11-06T07:15:57;97514.94;;;17.39;100.00
8697;BME280;4385;48.848;8.924;2022-11-06T07:18:23;97514.88;;;17.42;100.00
8697;BME280;4385;48.848;8.924;2022-11-06T07:20:49;97514.88;;;17.42;100.00
8697;BME280;4385;48.848;8.924;2022-11-06T07:23:14;97512.34;;;17.42;100.00
8697;BME280;4385;48.848;8.924;2022-11-06T07:25:40;97502.13;;;17.42;100.00
8697;BME280;4385;48.848;8.924;2022-11-06T07:28:07;97497.94;;;17.41;100.00
8697;BME280;4385;48.848;8.924;2022-11-06T07:30:34;97498.81;;;17.38;100.00
8697;BME280;4385;48.848;8.924;2022-11-06T07:33:00;97481.84;;;17.37;100.00
8697;BME280;4385;48.848;8.924;2022-11-06T07:35:26;97470.81;;;17.37;100.00
8697;BME280;4385;48.848;8.924;2022-11-06T07:37:52;97475.88;;;17.38;100.00
8697;BME280;4385;48.848;8.924;2022-11-06T07:40:17;97472.44;;;17.41;100.00
8697;BME280;4385;48.848;8.924;2022-11-06T07:42:43;97470.69;;;17.43;100.00
8697;BME280;4385;48.848;8.924;2022-11-06T07:45:08;97459.56;;;17.49;100.00
8697;BME280;4385;48.848;8.924;2022-11-06T07:47:34;97451.03;;;17.51;100.00
8697;BME280;4385;48.848;8.924;2022-11-06T07:49:59;97441.63;;;17.55;100.00
8697;BME280;4385;48.848;8.924;2022-11-06T07:52:24;97437.28;;;17.58;100.00
8697;BME280;4385;48.848;8.924;2022-11-06T07:54:50;97442.25;;;17.65;100.00
8697;BME280;4385;48.848;8.924;2022-11-06T07:57:15;97447.31;;;17.68;100.00
8697;BME280;4385;48.848;8.924;2022-11-06T07:59:43;97448.13;;;17.70;100.00
8697;BME280;4385;48.848;8.924;2022-11-06T08:02:10;97435.38;;;17.70;100.00
8697;BME280;4385;48.848;8.924;2022-11-06T08:04:37;97431.09;;;17.72;100.00
8697;BME280;4385;48.848;8.924;2022-11-06T08:07:02;97429.34;;;17.74;100.00
8697;BME280;4385;48.848;8.924;2022-11-06T08:09:27;97427.66;;;17.73;100.00
8697;BME280;4385;48.848;8.924;2022-11-06T08:11:53;97420.84;;;17.75;100.00
8697;BME280;4385;48.848;8.924;2022-11-06T08:14:18;97428.50;;;17.75;100.00
8697;BME280;4385;48.848;8.924;2022-11-06T08:16:43;97435.28;;;17.75;100.00
8697;BME280;4385;48.848;8.924;2022-11-06T08:19:08;97443.81;;;17.74;100.00
8697;BME280;4385;48.848;8.924;2022-11-06T08:21:33;97442.13;;;17.73;100.00
8697;BME280;4385;48.848;8.924;2022-11-06T08:23:59;97446.44;;;17.69;100.00
8697;BME280;4385;48.848;8.924;2022-11-06T08:26:24;97446.44;;;17.69;100.00
8697;BME280;4385;48.848;8.924;2022-11-06T08:28:50;97448.19;;;17.67;100.00
8697;BME280;4385;48.848;8.924;2022-11-06T08:31:15;97444.88;;;17.62;100.00
8697;BME280;4385;48.848;8.924;2022-11-06T08:33:41;97438.94;;;17.63;100.00
8697;BME280;4385;48.848;8.924;2022-11-06T08:36:07;97435.50;;;17.64;100.00
8697;BME280;4385;48.848;8.924;2022-11-06T08:38:35;97427.81;;;17.65;100.00
8697;BME280;4385;48.848;8.924;2022-11-06T08:41:09;97429.53;;;17.65;100.00
8697;BME280;4385;48.848;8.924;2022-11-06T08:43:35;97426.94;;;17.66;100.00
8697;BME280;4385;48.848;8.924;2022-11-06T08:46:01;97415.97;;;17.64;100.00
8697;BME280;4385;48.848;8.924;2022-11-06T08:48:27;97414.22;;;17.65;100.00
8697;BME280;4385;48.848;8.924;2022-11-06T08:50:52;97418.44;;;17.67;100.00
8697;BME280;4385;48.848;8.924;2022-11-06T08:53:18;97415.88;;;17.69;100.00
8697;BME280;4385;48.848;8.924;2022-11-06T08:55:43;97414.03;;;17.74;100.00
8697;BME280;4385;48.848;8.924;2022-11-06T08:58:08;97423.28;;;17.80;100.00
8697;BME280;4385;48.848;8.924;2022-11-06T09:00:34;97423.22;;;17.83;100.00
8697;BME280;4385;48.848;8.924;2022-11-06T09:03:02;97419.78;;;17.86;100.00
8697;BME280;4385;48.848;8.924;2022-11-06T09:05:28;97440.06;;;17.90;100.00
8697;BME280;4385;48.848;8.924;2022-11-06T09:07:56;97457.81;;;17.95;100.00
8697;BME280;4385;48.848;8.924;2022-11-06T09:10:21;97483.25;;;17.98;100.00
8697;BME280;4385;48.848;8.924;2022-11-06T09:12:46;97488.28;;;18.01;100.00
8697;BME280;4385;48.848;8.924;2022-11-06T09:15:12;97482.03;;;18.18;100.00
8697;BME280;4385;48.848;8.924;2022-11-06T09:17:47;97482.25;;;18.05;100.00
8697;BME280;4385;48.848;8.924;2022-11-06T09:20:14;97478.94;;;18.02;100.00
8697;BME280;4385;48.848;8.924;2022-11-06T09:22:40;97464.53;;;17.99;100.00
8697;BME280;4385;48.848;8.924;2022-11-06T09:25:06;97455.25;;;17.97;100.00
8697;BME280;4385;48.848;8.924;2022-11-06T09:27:32;97448.56;;;17.91;100.00
8697;BME280;4385;48.848;8.924;2022-11-06T09:29:58;97452.88;;;17.87;100.00
8697;BME280;4385;48.848;8.924;2022-11-06T09:32:23;97439.28;;;17.87;100.00
8697;BME280;4385;48.848;8.924;2022-11-06T09:34:49;97435.84;;;17.89;100.00
8697;BME280;4385;48.848;8.924;2022-11-06T09:37:14;97419.66;;;17.92;100.00
8697;BME280;4385;48.848;8.924;2022-11-06T09:39:40;97412.03;;;17.90;100.00
8697;BME280;4385;48.848;8.924;2022-11-06T09:45:14;97397.44;;;17.97;100.00
8697;BME280;4385;48.848;8.924;2022-11-06T09:47:46;97395.69;;;17.99;100.00
8697;BME280;4385;48.848;8.924;2022-11-06T09:50:18;97398.25;;;17.99;100.00
8697;BME280;4385;48.848;8.924;2022-11-06T09:52:51;97387.16;;;18.02;100.00
8697;BME280;4385;48.848;8.924;2022-11-06T09:55:26;97386.22;;;18.04;100.00
8697;BME280;4385;48.848;8.924;2022-11-06T09:58:39;97377.63;;;18.08;100.00
8697;BME280;4385;48.848;8.924;2022-11-06T10:00:44;97382.56;;;18.18;100.00
8697;BME280;4385;48.848;8.924;2022-11-06T10:03:15;97382.41;;;18.24;100.00
8697;BME280;4385;48.848;8.924;2022-11-06T10:05:43;97386.59;;;18.28;100.00
8697;BME280;4385;48.848;8.924;2022-11-06T10:08:21;97385.69;;;18.31;100.00
8697;BME280;4385;48.848;8.924;2022-11-06T10:16:49;97352.38;;;18.37;100.00
8697;BME280;4385;48.848;8.924;2022-11-06T10:19:44;97348.19;;;18.35;100.00
8697;BME280;4385;48.848;8.924;2022-11-06T10:24:45;97334.56;;;18.36;100.00
8697;BME280;4385;48.848;8.924;2022-11-06T10:27:40;97334.63;;;18.32;100.00
8697;BME280;4385;48.848;8.924;2022-11-06T10:30:16;97334.63;;;18.32;100.00
8697;BME280;4385;48.848;8.924;2022-11-06T10:33:22;97314.13;;;18.36;100.00
8697;BME280;4385;48.848;8.924;2022-11-06T10:35:58;97306.41;;;18.39;100.00
8697;BME280;4385;48.848;8.924;2022-11-06T10:38:32;97294.53;;;18.38;100.00
8697;BME280;4385;48.848;8.924;2022-11-06T10:40:58;97289.44;;;18.38;100.00
8697;BME280;4385;48.848;8.924;2022-11-06T10:43:29;97283.44;;;18.39;100.00
8697;BME280;4385;48.848;8.924;2022-11-06T10:48:29;97291.81;;;18.46;100.00
8697;BME280;4385;48.848;8.924;2022-11-06T10:51:06;97274.69;;;18.49;100.00
8697;BME280;4385;48.848;8.924;2022-11-06T10:53:57;97255.97;;;18.50;100.00
8697;BME280;4385;48.848;8.924;2022-11-06T10:56:39;97253.38;;;18.52;100.00
8697;BME280;4385;48.848;8.924;2022-11-06T10:59:08;97244.09;;;18.48;100.00
8697;BME280;4385;48.848;8.924;2022-11-06T11:01:33;97241.63;;;18.44;100.00
8697;BME280;4385;48.848;8.924;2022-11-06T11:03:58;97228.91;;;18.43;100.00
8697;BME280;4385;48.848;8.924;2022-11-06T11:06:24;97229.03;;;18.38;100.00
8697;BME280;4385;48.848;8.924;2022-11-06T11:08:50;97230.84;;;18.35;100.00
8697;BME280;4385;48.848;8.924;2022-11-06T11:11:20;97230.94;;;18.31;100.00
8697;BME280;4385;48.848;8.924;2022-11-06T11:14:13;97218.28;;;18.27;100.00
8697;BME280;4385;48.848;8.924;2022-11-06T11:16:40;97220.81;;;18.28;100.00
8697;BME280;4385;48.848;8.924;2022-11-06T11:21:55;97198.09;;;18.19;100.00
8697;BME280;4385;48.848;8.924;2022-11-06T11:24:20;97200.63;;;18.19;100.00
8697;BME280;4385;48.848;8.924;2022-11-06T11:26:47;97191.22;;;18.21;100.00
8697;BME280;4385;48.848;8.924;2022-11-06T11:29:31;97189.59;;;18.18;100.00
8697;BME280;4385;48.848;8.924;2022-11-06T11:32:03;97183.47;;;18.24;100.00
8697;BME280;4385;48.848;8.924;2022-11-06T11:34:32;97184.16;;;18.31;100.00
8697;BME280;4385;48.848;8.924;2022-11-06T11:37:02;97179.09;;;18.29;100.00
8697;BME280;4385;48.848;8.924;2022-11-06T11:39:30;97180.72;;;18.32;100.00
8697;BME280;4385;48.848;8.924;2022-11-06T11:42:29;97159.38;;;18.36;100.00
8697;BME280;4385;48.848;8.924;2022-11-06T11:47:33;97164.28;;;18.44;100.00
8697;BME280;4385;48.848;8.924;2022-11-06T11:50:17;97153.06;;;18.50;100.00
8697;BME280;4385;48.848;8.924;2022-11-06T11:52:44;97152.94;;;18.54;100.00
8697;BME280;4385;48.848;8.924;2022-11-06T11:55:15;97160.31;;;18.64;100.00
8697;BME280;4385;48.848;8.924;2022-11-06T11:57:43;97155.97;;;18.67;100.00
8697;BME280;4385;48.848;8.924;2022-11-06T12:00:16;97144.75;;;18.73;100.00
8697;BME280;4385;48.848;8.924;2022-11-06T12:02:45;97139.56;;;18.76;100.00
8697;BME280;4385;48.848;8.924;2022-11-06T12:05:41;97132.63;;;18.81;100.00
8697;BME280;4385;48.848;8.924;2022-11-06T12:08:13;97129.06;;;18.86;100.00
8697;BME280;4385;48.848;8.924;2022-11-06T12:10:45;97112.72;;;18.91;100.00
8697;BME280;4385;48.848;8.924;2022-11-06T12:13:23;97107.53;;;18.94;100.00
8697;BME280;4385;48.848;8.924;2022-11-06T12:16:14;97109.84;;;19.02;100.00
8697;BME280;4385;48.848;8.924;2022-11-06T12:18:51;97119.06;;;19.08;100.00
8697;BME280;4385;48.848;8.924;2022-11-06T12:21:23;97116.50;;;19.10;100.00
8697;BME280;4385;48.848;8.924;2022-11-06T12:24:29;97119.81;;;19.12;100.00
8697;BME280;4385;48.848;8.924;2022-11-06T12:27:02;97116.50;;;19.10;100.00
8697;BME280;4385;48.848;8.924;2022-11-06T12:29:38;97100.31;;;19.09;100.00
8697;BME280;4385;48.848;8.924;2022-11-06T12:35:02;97094.53;;;19.02;100.00
8697;BME280;4385;48.848;8.924;2022-11-06T12:40:17;97100.72;;;18.95;100.00
8697;BME280;4385;48.848;8.924;2022-11-06T12:42:55;97093.25;;;18.89;100.00
8697;BME280;4385;48.848;8.924;2022-11-06T12:45:26;97087.47;;;18.82;100.00
8697;BME280;4385;48.848;8.924;2022-11-06T12:48:06;97079.28;;;18.72;100.00
8697;BME280;4385;48.848;8.924;2022-11-06T12:50:43;97092.91;;;18.71;100.00
8697;BME280;4385;48.848;8.924;2022-11-06T12:56:11;97076.81;;;18.69;100.00
8697;BME280;4385;48.848;8.924;2022-11-06T13:01:15;97060.47;;;18.75;100.00
8697;BME280;4385;48.848;8.924;2022-11-06T13:04:06;97051.94;;;18.76;100.00
8697;BME280;4385;48.848;8.924;2022-11-06T13:07:13;97061.31;;;18.75;100.00
8697;BME280;4385;48.848;8.924;2022-11-06T13:12:23;97047.00;;;18.69;100.00
8697;BME280;4385;48.848;8.924;2022-11-06T13:15:14;97048.84;;;18.66;100.00
8697;BME280;4385;48.848;8.924;2022-11-06T13:17:57;97047.25;;;18.62;100.00
8697;BME280;4385;48.848;8.924;2022-11-06T13:20:38;97045.75;;;18.54;100.00
8697;BME280;4385;48.848;8.924;2022-11-06T13:23:22;97043.41;;;18.48;100.00
8697;BME280;4385;48.848;8.924;2022-11-06T13:28:47;97031.53;;;18.47;100.00
8697;BME280;4385;48.848;8.924;2022-11-06T13:31:15;97028.19;;;18.45;100.00
8697;BME280;4385;48.848;8.924;2022-11-06T13:33:50;97033.38;;;18.42;100.00
8697;BME280;4385;48.848;8.924;2022-11-06T13:36:18;97034.31;;;18.39;100.00
8697;BME280;4385;48.848;8.924;2022-11-06T13:38:48;97033.41;;;18.40;100.00
8697;BME280;4385;48.848;8.924;2022-11-06T13:41:29;97028.34;;;18.39;100.00
8697;BME280;4385;48.848;8.924;2022-11-06T13:44:01;97028.34;;;18.39;100.00
8697;BME280;4385;48.848;8.924;2022-11-06T13:51:51;97019.91;;;18.37;100.00
8697;BME280;4385;48.848;8.924;2022-11-06T14:00:28;97024.00;;;18.42;100.00
8697;BME280;4385;48.848;8.924;2022-11-06T14:05:50;97034.06;;;18.47;100.00
8697;BME280;4385;48.848;8.924;2022-11-06T14:08:26;97023.81;;;18.49;100.00
8697;BME280;4385;48.848;8.924;2022-11-06T14:11:35;97024.66;;;18.49;100.00
8697;BME280;4385;48.848;8.924;2022-11-06T14:14:10;97020.44;;;18.48;100.00
8697;BME280;4385;48.848;8.924;2022-11-06T14:16:37;97028.13;;;18.47;100.00
8697;BME280;4385;48.848;8.924;2022-11-06T14:19:09;97028.22;;;18.43;100.00
8697;BME280;4385;48.848;8.924;2022-11-06T14:26:48;97030.03;;;18.40;100.00
8697;BME280;4385;48.848;8.924;2022-11-06T14:34:43;97013.81;;;18.42;100.00
8697;BME280;4385;48.848;8.924;2022-11-06T14:42:39;97003.59;;;18.42;100.00
8697;BME280;4385;48.848;8.924;2022-11-06T14:45:11;96988.38;;;18.39;100.00
8697;BME280;4385;48.848;8.924;2022-11-06T14:50:37;96989.19;;;18.40;100.00
8697;BME280;4385;48.848;8.924;2022-11-06T14:53:22;96985.75;;;18.42;100.00
8697;BME280;4385;48.848;8.924;2022-11-06T14:56:01;96990.81;;;18.44;100.00
8697;BME280;4385;48.848;8.924;2022-11-06T14:58:32;96995.94;;;18.42;100.00
8697;BME280;4385;48.848;8.924;2022-11-06T15:03:50;96989.09;;;18.43;100.00
8697;BME280;4385;48.848;8.924;2022-11-06T15:13:53;96968.78;;;18.40;100.00
8697;BME280;4385;48.848;8.924;2022-11-06T15:16:19;96982.44;;;18.39;100.00